createdAt,value
2023-01-20T00:00:48.239Z,23.67
2023-01-20T00:04:08.816Z,23.17
2023-01-20T00:07:25.022Z,22.00
2023-01-20T00:10:40.825Z,22.77
2023-01-20T00:14:14.690Z,21.55
2023-01-20T00:17:39.744Z,23.90
2023-01-20T00:20:59.895Z,20.20
2023-01-20T00:24:13.496Z,20.73
2023-01-20T00:27:36.819Z,22.13
2023-01-20T00:31:07.808Z,19.40
2023-01-20T00:34:28.606Z,22.73
2023-01-20T00:37:38.721Z,21.67
2023-01-20T00:40:42.770Z,21.67
2023-01-20T00:43:46.512Z,22.97
2023-01-20T00:47:02.874Z,25.85
2023-01-20T00:50:09.943Z,25.17
2023-01-20T00:53:16.121Z,25.83
2023-01-20T00:56:25.891Z,25.80
2023-01-20T00:59:28.893Z,27.33
2023-01-20T01:02:39.744Z,25.95
2023-01-20T01:05:49.355Z,25.00
2023-01-20T01:08:53.226Z,25.45
2023-01-20T01:12:08.793Z,27.17
2023-01-20T01:15:36.568Z,26.90
2023-01-20T01:19:05.190Z,27.38
2023-01-20T01:22:08.294Z,28.83
2023-01-20T01:25:14.725Z,28.70
2023-01-20T01:28:22.041Z,30.55
2023-01-20T01:31:35.893Z,29.57
2023-01-20T01:34:58.589Z,28.58
2023-01-20T01:38:18.689Z,27.17
2023-01-20T01:41:38.556Z,30.67
2023-01-20T01:45:14.152Z,29.52
2023-01-20T01:48:32.548Z,25.13
2023-01-20T01:51:51.754Z,26.02
2023-01-20T01:55:02.755Z,24.65
2023-01-20T01:58:15.178Z,24.25
2023-01-20T02:01:21.362Z,25.88
2023-01-20T02:04:38.730Z,28.17
2023-01-20T02:07:55.469Z,23.90
2023-01-20T02:11:22.539Z,26.92
2023-01-20T02:14:45.352Z,24.15
2023-01-20T02:18:19.613Z,23.50
2023-01-20T02:21:59.859Z,25.13
2023-01-20T02:25:21.215Z,24.88
2023-01-20T02:28:35.799Z,23.75
2023-01-20T02:32:00.831Z,26.38
2023-01-20T02:35:42.868Z,25.48
2023-01-20T02:39:26.885Z,26.93
2023-01-20T02:42:41.240Z,25.63
2023-01-20T02:46:01.085Z,25.17
2023-01-20T02:49:20.944Z,24.42
2023-01-20T02:52:39.650Z,21.05
2023-01-20T02:56:04.294Z,20.57
2023-01-20T02:59:35.085Z,20.13
2023-01-20T03:02:41.004Z,23.35
2023-01-20T03:05:55.216Z,21.20
2023-01-20T03:09:16.672Z,18.48
2023-01-20T03:12:46.030Z,21.10
2023-01-20T03:16:02.351Z,23.48
2023-01-20T03:19:20.395Z,22.30
2023-01-20T03:22:28.397Z,23.75
2023-01-20T03:25:33.011Z,22.15
2023-01-20T03:28:48.591Z,22.07
2023-01-20T03:32:12.372Z,24.02
2023-01-20T03:35:35.234Z,22.65
2023-01-20T03:38:51.609Z,22.02
2023-01-20T03:42:19.398Z,20.35
2023-01-20T03:45:37.288Z,22.57
2023-01-20T03:49:16.579Z,22.52
2023-01-20T03:52:48.053Z,20.90
2023-01-20T03:55:54.663Z,23.85
2023-01-20T03:59:08.504Z,25.95
2023-01-20T04:02:22.532Z,23.77
2023-01-20T04:05:27.301Z,23.83
2023-01-20T04:08:37.135Z,23.38
2023-01-20T04:11:53.997Z,27.88
2023-01-20T04:15:17.384Z,26.30
2023-01-20T04:18:34.970Z,24.23
2023-01-20T04:22:04.954Z,27.58
2023-01-20T04:25:23.095Z,24.70
2023-01-20T04:28:44.971Z,25.65
2023-01-20T04:32:09.250Z,25.05
2023-01-20T04:35:26.200Z,26.90
2023-01-20T04:38:49.059Z,25.33
2023-01-20T04:42:12.064Z,23.55
2023-01-20T04:45:36.075Z,26.75
2023-01-20T04:48:46.513Z,25.40
2023-01-20T04:52:09.149Z,26.57
2023-01-20T04:55:43.247Z,24.40
2023-01-20T04:59:06.168Z,24.83
2023-01-20T05:02:27.040Z,27.75
2023-01-20T05:05:49.980Z,25.85
2023-01-20T05:09:11.034Z,24.83
2023-01-20T05:12:14.063Z,28.23
2023-01-20T05:15:17.183Z,27.58
2023-01-20T05:18:26.406Z,26.65
2023-01-20T05:21:49.443Z,29.70
2023-01-20T05:25:03.601Z,25.23
2023-01-20T05:28:19.047Z,28.42
2023-01-20T05:31:30.078Z,27.42
2023-01-20T05:34:33.402Z,26.33
2023-01-20T05:37:52.875Z,27.00
2023-01-20T05:41:15.859Z,26.53
2023-01-20T05:44:29.272Z,27.08
2023-01-20T05:47:44.865Z,27.40
2023-01-20T05:50:58.425Z,22.17
2023-01-20T05:54:02.258Z,26.15
2023-01-20T05:57:19.448Z,25.37
2023-01-20T06:00:34.935Z,24.30
2023-01-20T06:03:50.800Z,23.38
2023-01-20T06:07:24.763Z,24.00
2023-01-20T06:10:50.696Z,23.85
2023-01-20T06:14:11.745Z,22.87
2023-01-20T06:17:21.721Z,22.90
2023-01-20T06:20:25.451Z,22.65
2023-01-20T06:23:36.079Z,24.00
2023-01-20T06:26:42.543Z,23.58
2023-01-20T06:29:56.182Z,24.87
2023-01-20T06:33:08.827Z,21.92
2023-01-20T06:36:17.767Z,27.98
2023-01-20T06:39:31.711Z,23.42
2023-01-20T06:42:41.771Z,23.85
2023-01-20T06:46:06.004Z,22.87
2023-01-20T06:49:44.402Z,22.17
2023-01-20T06:53:19.540Z,23.02
2023-01-20T06:56:27.309Z,28.05
2023-01-20T06:59:44.944Z,20.80
2023-01-20T07:03:05.969Z,29.83
2023-01-20T07:06:47.819Z,27.70
2023-01-20T07:10:13.201Z,24.75
2023-01-20T07:13:17.268Z,24.45
2023-01-20T07:16:35.098Z,21.83
2023-01-20T07:19:39.564Z,21.17
2023-01-20T07:22:42.868Z,22.83
2023-01-20T07:26:07.828Z,22.75
2023-01-20T07:29:31.764Z,23.98
2023-01-20T07:32:59.450Z,27.33
2023-01-20T07:36:13.854Z,21.77
2023-01-20T07:39:22.753Z,26.98
2023-01-20T07:42:39.595Z,25.48
2023-01-20T07:46:02.582Z,25.65
2023-01-20T07:49:15.699Z,26.02
2023-01-20T07:52:32.952Z,22.10
2023-01-20T07:56:20.252Z,25.00
2023-01-20T07:59:42.508Z,26.88
2023-01-20T08:03:38.805Z,26.17
2023-01-20T08:10:59.302Z,32.23
2023-01-20T08:14:04.545Z,73.13
2023-01-20T08:23:15.460Z,27.02
2023-01-20T08:27:20.493Z,20.70
2023-01-20T08:30:32.129Z,24.53
2023-01-20T08:34:03.833Z,23.65
2023-01-20T08:37:07.834Z,21.38
2023-01-20T08:40:15.288Z,21.75
2023-01-20T08:43:29.628Z,22.77
2023-01-20T08:47:28.147Z,23.10
2023-01-20T08:50:33.358Z,24.33
2023-01-20T08:54:24.598Z,29.77
2023-01-20T09:06:55.175Z,19.03
2023-01-20T09:10:55.574Z,22.08
2023-01-20T09:19:12.157Z,21.45
2023-01-20T09:22:27.642Z,18.95
2023-01-20T09:31:17.868Z,20.33
2023-01-20T09:35:05.749Z,19.60
2023-01-20T09:44:10.833Z,22.42
2023-01-20T09:48:16.773Z,33.30
2023-01-20T09:52:06.521Z,32.00
2023-01-20T09:55:27.356Z,23.23
2023-01-20T09:59:08.948Z,30.27
2023-01-20T10:03:07.041Z,23.52
2023-01-20T10:06:25.188Z,23.13
2023-01-20T10:09:55.207Z,23.92
2023-01-20T10:13:53.600Z,21.67
2023-01-20T10:18:06.123Z,32.95
2023-01-20T10:21:46.896Z,28.00
2023-01-20T10:26:18.000Z,21.00
2023-01-20T10:35:54.482Z,18.48
2023-01-20T10:39:36.502Z,19.00
2023-01-20T10:43:04.602Z,20.80
2023-01-20T10:46:35.252Z,18.03
2023-01-20T10:49:49.781Z,18.25
2023-01-20T10:53:51.120Z,18.63
2023-01-20T10:57:18.203Z,18.90
2023-01-20T11:01:42.296Z,17.58
2023-01-20T11:05:00.315Z,19.10
2023-01-20T11:08:32.396Z,17.95
2023-01-20T11:11:44.721Z,22.05
2023-01-20T11:14:59.935Z,19.70
2023-01-20T11:18:26.764Z,19.10
2023-01-20T11:21:52.570Z,18.93
2023-01-20T11:29:57.193Z,19.98
2023-01-20T11:33:24.809Z,17.98
2023-01-20T11:37:00.847Z,21.52
2023-01-20T11:40:28.579Z,20.43
2023-01-20T11:43:40.496Z,22.05
2023-01-20T11:46:52.554Z,70.13
2023-01-20T11:50:09.725Z,29.90
2023-01-20T11:53:35.163Z,27.55
2023-01-20T11:57:09.008Z,23.87
2023-01-20T12:01:15.940Z,20.00
2023-01-20T12:04:38.717Z,17.05
2023-01-20T12:07:49.004Z,19.70
2023-01-20T12:11:02.839Z,20.02
2023-01-20T12:14:29.973Z,20.63
2023-01-20T12:17:40.054Z,15.48
2023-01-20T12:21:08.128Z,19.20
2023-01-20T12:25:08.999Z,20.90
2023-01-20T12:28:49.157Z,20.95
2023-01-20T12:31:59.528Z,11.70
2023-01-20T12:35:06.799Z,9.70
2023-01-20T12:38:19.074Z,9.80
2023-01-20T12:41:48.407Z,10.73
2023-01-20T12:45:18.562Z,8.90
2023-01-20T12:48:49.087Z,7.97
2023-01-20T12:52:07.425Z,11.00
2023-01-20T12:55:41.252Z,11.35
2023-01-20T12:58:55.125Z,11.85
2023-01-20T13:02:24.597Z,21.35
2023-01-20T13:06:01.334Z,26.20
2023-01-20T13:09:32.645Z,23.52
2023-01-20T13:13:31.415Z,24.80
2023-01-20T13:17:09.825Z,26.50
2023-01-20T13:20:25.265Z,29.38
2023-01-20T13:23:36.055Z,27.60
2023-01-20T13:26:50.984Z,28.35
2023-01-20T13:30:07.030Z,30.55
2023-01-20T13:33:36.848Z,34.40
2023-01-20T13:37:06.085Z,27.33
2023-01-20T13:40:42.471Z,32.33
2023-01-20T13:43:55.444Z,32.53
2023-01-20T13:47:08.326Z,32.00
2023-01-20T13:50:36.738Z,30.85
2023-01-20T13:53:51.012Z,35.85
2023-01-20T13:57:28.180Z,33.90
2023-01-20T14:00:32.199Z,33.45
2023-01-20T14:03:52.781Z,40.90
2023-01-20T14:07:10.115Z,37.80
2023-01-20T14:10:26.671Z,42.67
2023-01-20T14:13:55.649Z,35.30
2023-01-20T14:17:21.110Z,41.60
2023-01-20T14:20:37.779Z,47.40
2023-01-20T14:23:55.493Z,49.08
2023-01-20T14:27:18.398Z,51.38
2023-01-20T14:30:27.536Z,44.00
2023-01-20T14:33:34.625Z,51.45
2023-01-20T14:36:37.642Z,48.10
2023-01-20T14:39:51.332Z,45.15
2023-01-20T14:43:00.014Z,45.30
2023-01-20T14:46:10.938Z,40.20
2023-01-20T14:49:19.356Z,41.33
2023-01-20T14:52:31.289Z,45.05
2023-01-20T14:55:56.176Z,39.97
2023-01-20T14:58:59.733Z,44.33
2023-01-20T15:02:14.739Z,44.33
2023-01-20T15:05:31.424Z,36.17
2023-01-20T15:08:41.058Z,38.17
2023-01-20T15:11:58.517Z,31.08
2023-01-20T15:15:27.434Z,37.50
2023-01-20T15:18:50.341Z,36.80
2023-01-20T15:22:21.010Z,33.58
2023-01-20T15:25:36.171Z,37.40
2023-01-20T15:28:57.487Z,38.38
2023-01-20T15:32:12.390Z,33.50
2023-01-20T15:35:37.674Z,38.80
2023-01-20T15:38:59.333Z,34.83
2023-01-20T15:42:25.532Z,36.38
2023-01-20T15:45:28.750Z,34.47
2023-01-20T15:48:32.169Z,35.08
2023-01-20T15:51:45.991Z,32.33
2023-01-20T15:54:55.789Z,34.53
2023-01-20T15:58:27.157Z,34.30
2023-01-20T16:01:47.979Z,35.97
2023-01-20T16:04:57.841Z,34.30
2023-01-20T16:08:34.942Z,36.60
2023-01-20T16:11:56.771Z,36.63
2023-01-20T16:15:14.885Z,37.72
2023-01-20T16:18:23.780Z,38.53
2023-01-20T16:21:32.597Z,34.97
2023-01-20T16:24:38.750Z,36.97
2023-01-20T16:27:45.642Z,37.63
2023-01-20T16:31:06.234Z,41.33
2023-01-20T16:34:26.154Z,41.17
2023-01-20T16:37:33.279Z,33.75
2023-01-20T16:40:44.503Z,39.37
2023-01-20T16:43:59.086Z,32.03
2023-01-20T16:47:19.958Z,33.80
2023-01-20T16:50:36.339Z,40.95
2023-01-20T16:53:59.127Z,41.28
2023-01-20T16:57:24.945Z,41.33
2023-01-20T17:00:28.002Z,37.38
2023-01-20T17:03:31.993Z,39.38
2023-01-20T17:06:43.445Z,31.98
2023-01-20T17:09:49.606Z,40.00
2023-01-20T17:12:54.350Z,43.20
2023-01-20T17:15:59.289Z,39.13
2023-01-20T17:19:21.250Z,34.03
2023-01-20T17:22:45.299Z,41.13
2023-01-20T17:26:07.060Z,40.05
2023-01-20T17:29:27.943Z,33.07
2023-01-20T17:32:51.055Z,45.15
2023-01-20T17:36:04.014Z,39.95
2023-01-20T17:39:20.009Z,38.05
2023-01-20T17:42:57.058Z,39.13
2023-01-20T17:46:23.205Z,42.07
2023-01-20T17:49:26.118Z,41.08
2023-01-20T17:52:29.398Z,38.53
2023-01-20T17:55:39.756Z,36.60
2023-01-20T17:58:44.638Z,37.75
2023-01-20T18:01:52.487Z,35.20
2023-01-20T18:04:55.437Z,33.38
2023-01-20T18:08:05.741Z,36.25
2023-01-20T18:11:21.765Z,31.58
2023-01-20T18:14:29.063Z,36.83
2023-01-20T18:17:34.518Z,33.80
2023-01-20T18:20:57.881Z,32.17
2023-01-20T18:24:19.450Z,30.20
2023-01-20T18:27:29.847Z,32.20
2023-01-20T18:30:39.622Z,31.17
2023-01-20T18:33:52.172Z,32.60
2023-01-20T18:37:02.883Z,31.75
2023-01-20T18:40:11.160Z,33.65
2023-01-20T18:43:24.042Z,28.55
2023-01-20T18:46:28.681Z,30.05
2023-01-20T18:49:42.745Z,20.83
2023-01-20T18:52:45.733Z,26.55
2023-01-20T18:55:50.434Z,23.80
2023-01-20T18:58:56.063Z,19.30
2023-01-20T19:02:03.297Z,17.08
2023-01-20T19:05:07.690Z,22.53
2023-01-20T19:08:10.938Z,22.55
2023-01-20T19:11:29.827Z,23.20
2023-01-20T19:14:54.592Z,22.67
2023-01-20T19:18:16.562Z,20.40
2023-01-20T19:21:39.693Z,18.83
2023-01-20T19:25:02.683Z,24.33
2023-01-20T19:28:19.716Z,22.02
2023-01-20T19:31:43.801Z,23.17
2023-01-20T19:34:47.822Z,20.38
2023-01-20T19:37:57.424Z,21.27
2023-01-20T19:41:17.376Z,19.48
2023-01-20T19:44:20.815Z,25.10
2023-01-20T19:47:30.661Z,22.88
2023-01-20T19:50:36.939Z,22.75
2023-01-20T19:53:44.539Z,26.13
2023-01-20T19:57:01.772Z,28.02
2023-01-20T20:00:26.563Z,30.50
2023-01-20T20:03:29.964Z,27.20
2023-01-20T20:06:38.374Z,30.95
2023-01-20T20:09:42.561Z,32.93
2023-01-20T20:12:52.318Z,33.05
2023-01-20T20:16:06.137Z,32.70
2023-01-20T20:19:16.265Z,29.55
2023-01-20T20:22:23.539Z,32.80
2023-01-20T20:25:37.994Z,32.73
2023-01-20T20:28:58.526Z,32.72
2023-01-20T20:32:02.516Z,36.67
2023-01-20T20:35:07.392Z,33.03
2023-01-20T20:38:10.561Z,36.13
2023-01-20T20:41:35.464Z,33.50
2023-01-20T20:45:04.683Z,34.42
2023-01-20T20:48:14.018Z,35.47
2023-01-20T20:51:38.416Z,38.78
2023-01-20T20:55:15.396Z,33.85
2023-01-20T20:58:48.542Z,36.47
2023-01-20T21:02:01.387Z,35.78
2023-01-20T21:05:24.226Z,36.65
2023-01-20T21:08:45.264Z,32.85
2023-01-20T21:12:07.409Z,31.83
2023-01-20T21:15:24.258Z,30.07
2023-01-20T21:18:28.587Z,34.08
2023-01-20T21:21:33.272Z,31.92
2023-01-20T21:24:50.839Z,35.10
2023-01-20T21:27:57.903Z,32.97
2023-01-20T21:31:01.617Z,34.83
2023-01-20T21:34:06.969Z,34.33
2023-01-20T21:37:23.497Z,35.17
2023-01-20T21:40:45.575Z,34.42
2023-01-20T21:44:25.331Z,30.98
2023-01-20T21:47:34.000Z,34.53
2023-01-20T21:51:12.491Z,31.88
2023-01-20T21:54:16.424Z,32.00
2023-01-20T21:57:39.456Z,29.85
2023-01-20T22:01:03.390Z,32.83
2023-01-20T22:04:19.471Z,31.40
2023-01-20T22:07:44.360Z,33.47
2023-01-20T22:11:11.353Z,33.88
2023-01-20T22:14:34.301Z,33.30
2023-01-20T22:17:48.634Z,29.80
2023-01-20T22:21:09.440Z,34.73
2023-01-20T22:24:25.447Z,30.58
2023-01-20T22:27:48.199Z,30.30
2023-01-20T22:30:56.480Z,31.35
2023-01-20T22:34:06.620Z,31.73
2023-01-20T22:37:20.039Z,30.27
2023-01-20T22:40:41.929Z,27.30
2023-01-20T22:44:03.809Z,34.30
2023-01-20T22:47:25.799Z,31.30
2023-01-20T22:50:36.003Z,31.08
2023-01-20T22:53:59.049Z,32.93
2023-01-20T22:57:33.091Z,31.77
2023-01-20T23:00:57.889Z,34.60
2023-01-20T23:04:16.921Z,31.70
2023-01-20T23:07:38.941Z,36.10
2023-01-20T23:10:55.271Z,33.90
2023-01-20T23:14:13.787Z,31.75
2023-01-20T23:17:23.739Z,30.52
2023-01-20T23:20:26.914Z,32.33
2023-01-20T23:23:43.382Z,31.33
2023-01-20T23:26:53.399Z,33.10
2023-01-20T23:30:00.000Z,29.70
2023-01-20T23:33:08.299Z,30.60
2023-01-20T23:36:21.143Z,33.47
2023-01-20T23:39:24.676Z,29.30
2023-01-20T23:42:28.991Z,30.63
2023-01-20T23:45:38.970Z,31.73
2023-01-20T23:49:01.892Z,34.00
2023-01-20T23:52:37.955Z,34.58
2023-01-20T23:56:21.935Z,30.38
2023-01-20T23:59:45.920Z,29.33
